Impacts METAR Board
IDs:

KLGA - New York/La Guardia, NY, US

Updated at: 0700 UTC 21 Sep 2018
Potential Impact None Slight Moderate High
Time 20/19Z 20/20Z 20/21Z 20/22Z 20/23Z 21/00Z 21/01Z 21/02Z 21/03Z 21/04Z 21/05Z 21/06Z 21/07Z
Temp71 73 72 71 70 69 69 69 69 69 69 69 69
Dewpt56 57 58 58 59 59 58 59 59 59 59 58 59
Altim30.21 30.20 30.20 30.22 30.23 30.23 30.24 30.24 30.25 30.25 30.25 30.24 30.23
VIS10 10 10 10 10 10 10 10 10 10 10 10 10
CIG60 -- 33 38 47 48 50 55 36 39 41 27 39
CoverBKNSCTBKNBKNOVCOVCOVCOVCOVCOVCOVCOVCOVC
FltCatVFRVFRVFRVFRVFRVFRVFRVFRVFRVFRVFRMVFRVFR
WX--------------------------
WDir5040180170190170160150140160140160150
WSpd6 6 7 9 9 9 9 8 9 8 7 6 5
WGst-- -- -- -- -- -- -- -- -- -- -- -- --
Raw hourly METARs
KLGA 201851Z 05006KT 10SM FEW025 SCT042 BKN060 22/13 A3021 RMK AO2 SLP231 T02170133 $
KLGA 201951Z 04006KT 10SM FEW042 SCT060 23/14 A3020 RMK AO2 SLP227 T02280139 $
KLGA 202051Z 18007KT 10SM BKN033 BKN048 BKN250 22/14 A3020 RMK AO2 SLP225 T02220144 56010 $
KLGA 202151Z 17009KT 10SM BKN038 BKN250 22/14 A3022 RMK AO2 SLP233 T02170144 $
KLGA 202251Z 19009KT 10SM FEW035 BKN047 OVC250 21/15 A3023 RMK AO2 SLP235 T02110150 $
KLGA 202351Z 17009KT 10SM FEW022 OVC048 21/15 A3023 RMK AO2 SLP236 T02060150 10228 20206 51010 $
KLGA 210051Z 16009KT 10SM OVC050 21/14 A3024 RMK AO2 SLP239 T02060144 $
KLGA 210151Z 15008KT 10SM FEW024 SCT035 OVC055 21/15 A3024 RMK AO2 SLP241 T02060150 $
KLGA 210251Z 14009KT 10SM BKN036 OVC055 21/15 A3025 RMK AO2 SLP242 T02060150 51006 $
KLGA 210351Z 16008KT 10SM FEW028 OVC039 21/15 A3025 RMK AO2 SLP244 T02060150 $
KLGA 210451Z 14007KT 10SM OVC041 21/15 A3025 RMK AO2 SLP244 T02060150 402280189 $
KLGA 210551Z 16006KT 10SM OVC027 21/14 A3024 RMK AO2 SLP241 T02060144 10211 20206 58001 $
KLGA 210651Z 15005KT 10SM FEW024 BKN039 OVC060 21/15 A3023 RMK AO2 SLP237 T02060150 $



Page loaded:  07:47 UTC  |   12:47 AM Pacific  |   01:47 AM Mountain  |   02:47 AM Central  |   03:47 AM Eastern

 

ADVISORIES

FORECASTS

FORECASTS

OBSERVATIONS

USER TOOLS

ABOUT US